sensor_id;sensor_type;location;lat;lon;timestamp;pressure;altitude;pressure_sealevel;temperature;humidity
46379;BME280;32084;42.254;22.744;2023-02-19T00:01:30;95609.16;;;4.14;68.48
46379;BME280;32084;42.254;22.744;2023-02-19T00:03:58;95619.03;;;3.99;68.54
46379;BME280;32084;42.254;22.744;2023-02-19T00:06:25;95613.94;;;3.96;68.11
46379;BME280;32084;42.254;22.744;2023-02-19T00:08:51;95612.78;;;3.87;68.85
46379;BME280;32084;42.254;22.744;2023-02-19T00:11:18;95605.75;;;3.62;68.60
46379;BME280;32084;42.254;22.744;2023-02-19T00:13:45;95601.72;;;3.56;69.87
46379;BME280;32084;42.254;22.744;2023-02-19T00:16:12;95601.97;;;3.53;70.04
46379;BME280;32084;42.254;22.744;2023-02-19T00:18:39;95595.41;;;3.46;70.68
46379;BME280;32084;42.254;22.744;2023-02-19T00:21:05;95597.50;;;3.41;70.06
46379;BME280;32084;42.254;22.744;2023-02-19T00:23:31;95596.88;;;3.37;69.97
46379;BME280;32084;42.254;22.744;2023-02-19T00:26:16;95596.56;;;3.16;69.75
46379;BME280;32084;42.254;22.744;2023-02-19T00:28:42;95598.16;;;3.06;70.25
46379;BME280;32084;42.254;22.744;2023-02-19T00:31:14;95595.28;;;3.09;70.02
46379;BME280;32084;42.254;22.744;2023-02-19T00:33:41;95587.59;;;3.06;71.02
46379;BME280;32084;42.254;22.744;2023-02-19T00:36:07;95582.50;;;3.03;70.46
46379;BME280;32084;42.254;22.744;2023-02-19T00:38:36;95577.34;;;3.27;70.76
46379;BME280;32084;42.254;22.744;2023-02-19T00:41:03;95573.75;;;3.15;71.44
46379;BME280;32084;42.254;22.744;2023-02-19T00:44:06;95567.28;;;3.06;71.57
46379;BME280;32084;42.254;22.744;2023-02-19T00:46:37;95558.63;;;3.17;70.81
46379;BME280;32084;42.254;22.744;2023-02-19T00:49:03;95540.44;;;3.00;70.83
46379;BME280;32084;42.254;22.744;2023-02-19T00:51:31;95558.09;;;2.99;70.84
46379;BME280;32084;42.254;22.744;2023-02-19T00:53:57;95563.06;;;3.04;70.37
46379;BME280;32084;42.254;22.744;2023-02-19T00:56:23;95556.50;;;2.97;71.80
46379;BME280;32084;42.254;22.744;2023-02-19T00:58:49;95553.63;;;3.00;72.19
46379;BME280;32084;42.254;22.744;2023-02-19T01:01:16;95539.81;;;2.96;72.38
46379;BME280;32084;42.254;22.744;2023-02-19T01:03:42;95535.78;;;3.03;71.13
46379;BME280;32084;42.254;22.744;2023-02-19T01:06:09;95539.41;;;3.15;70.58
46379;BME280;32084;42.254;22.744;2023-02-19T01:08:35;95533.25;;;3.27;71.46
46379;BME280;32084;42.254;22.744;2023-02-19T01:11:02;95535.97;;;3.26;70.81
46379;BME280;32084;42.254;22.744;2023-02-19T01:13:29;95547.28;;;3.28;70.98
46379;BME280;32084;42.254;22.744;2023-02-19T01:18:30;95555.56;;;3.10;71.67
46379;BME280;32084;42.254;22.744;2023-02-19T01:20:56;95560.63;;;3.01;70.84
46379;BME280;32084;42.254;22.744;2023-02-19T01:23:22;95566.00;;;2.99;72.05
46379;BME280;32084;42.254;22.744;2023-02-19T01:25:48;95576.25;;;2.91;71.69
46379;BME280;32084;42.254;22.744;2023-02-19T01:28:14;95574.91;;;2.98;72.04
46379;BME280;32084;42.254;22.744;2023-02-19T01:30:40;95563.69;;;3.20;72.87
46379;BME280;32084;42.254;22.744;2023-02-19T01:33:07;95572.88;;;3.15;71.50
46379;BME280;32084;42.254;22.744;2023-02-19T01:35:33;95579.13;;;3.13;72.08
46379;BME280;32084;42.254;22.744;2023-02-19T01:37:59;95576.38;;;3.28;72.39
46379;BME280;32084;42.254;22.744;2023-02-19T01:40:25;95574.16;;;3.22;71.98
46379;BME280;32084;42.254;22.744;2023-02-19T01:42:51;95570.75;;;3.07;72.37
46379;BME280;32084;42.254;22.744;2023-02-19T01:45:22;95559.78;;;3.26;72.55
46379;BME280;32084;42.254;22.744;2023-02-19T01:47:50;95554.28;;;3.42;71.93
46379;BME280;32084;42.254;22.744;2023-02-19T01:50:19;95553.97;;;3.21;71.22
46379;BME280;32084;42.254;22.744;2023-02-19T01:52:45;95560.19;;;3.07;72.48
46379;BME280;32084;42.254;22.744;2023-02-19T01:55:12;95556.91;;;3.16;72.07
46379;BME280;32084;42.254;22.744;2023-02-19T01:57:43;95564.94;;;3.27;72.02
46379;BME280;32084;42.254;22.744;2023-02-19T02:00:11;95583.16;;;3.32;72.17
46379;BME280;32084;42.254;22.744;2023-02-19T02:02:40;95584.19;;;3.04;73.65
46379;BME280;32084;42.254;22.744;2023-02-19T02:05:13;95579.53;;;2.95;73.92
46379;BME280;32084;42.254;22.744;2023-02-19T02:07:40;95577.84;;;2.93;73.55
46379;BME280;32084;42.254;22.744;2023-02-19T02:10:25;95568.41;;;2.77;73.51
46379;BME280;32084;42.254;22.744;2023-02-19T02:12:52;95579.06;;;2.75;74.05
46379;BME280;32084;42.254;22.744;2023-02-19T02:15:20;95584.47;;;2.86;73.53
46379;BME280;32084;42.254;22.744;2023-02-19T02:26:47;95557.56;;;3.07;72.27
46379;BME280;32084;42.254;22.744;2023-02-19T02:31:20;95566.63;;;2.77;73.59
46379;BME280;32084;42.254;22.744;2023-02-19T02:33:52;95565.53;;;2.67;73.77
46379;BME280;32084;42.254;22.744;2023-02-19T02:36:24;95561.88;;;2.69;74.65
46379;BME280;32084;42.254;22.744;2023-02-19T02:38:52;95575.31;;;2.52;72.95
46379;BME280;32084;42.254;22.744;2023-02-19T02:41:19;95570.59;;;2.57;73.96
46379;BME280;32084;42.254;22.744;2023-02-19T02:43:45;95557.75;;;2.78;73.82
46379;BME280;32084;42.254;22.744;2023-02-19T02:46:12;95572.94;;;2.74;73.76
46379;BME280;32084;42.254;22.744;2023-02-19T02:56:36;95571.81;;;2.91;73.24
46379;BME280;32084;42.254;22.744;2023-02-19T02:59:03;95574.69;;;2.88;72.63
46379;BME280;32084;42.254;22.744;2023-02-19T03:01:42;95568.13;;;2.81;73.24
46379;BME280;32084;42.254;22.744;2023-02-19T03:06:55;95587.44;;;2.42;73.99
46379;BME280;32084;42.254;22.744;2023-02-19T03:09:27;95592.28;;;2.35;74.57
46379;BME280;32084;42.254;22.744;2023-02-19T03:11:57;95601.06;;;2.48;74.52
46379;BME280;32084;42.254;22.744;2023-02-19T03:14:48;95604.72;;;2.33;75.63
46379;BME280;32084;42.254;22.744;2023-02-19T03:17:45;95607.09;;;1.96;75.45
46379;BME280;32084;42.254;22.744;2023-02-19T03:20:31;95607.44;;;2.04;76.49
46379;BME280;32084;42.254;22.744;2023-02-19T03:22:58;95603.50;;;1.97;75.88
46379;BME280;32084;42.254;22.744;2023-02-19T03:25:27;95607.53;;;2.03;75.93
46379;BME280;32084;42.254;22.744;2023-02-19T03:28:13;95621.69;;;1.87;75.07
46379;BME280;32084;42.254;22.744;2023-02-19T03:30:46;95614.00;;;1.84;75.60
46379;BME280;32084;42.254;22.744;2023-02-19T03:33:21;95618.88;;;1.90;75.74
46379;BME280;32084;42.254;22.744;2023-02-19T03:35:49;95616.81;;;1.95;76.40
46379;BME280;32084;42.254;22.744;2023-02-19T03:38:22;95629.47;;;2.18;75.45
46379;BME280;32084;42.254;22.744;2023-02-19T03:43:20;95630.91;;;2.09;75.76
46379;BME280;32084;42.254;22.744;2023-02-19T03:50:45;95635.44;;;2.07;77.00
46379;BME280;32084;42.254;22.744;2023-02-19T03:55:58;95639.91;;;1.78;76.40
46379;BME280;32084;42.254;22.744;2023-02-19T03:58:32;95635.41;;;1.65;78.25
46379;BME280;32084;42.254;22.744;2023-02-19T04:01:05;95644.06;;;1.67;78.20
46379;BME280;32084;42.254;22.744;2023-02-19T04:06:12;95640.59;;;2.08;76.79
46379;BME280;32084;42.254;22.744;2023-02-19T04:08:38;95650.97;;;2.11;76.40
46379;BME280;32084;42.254;22.744;2023-02-19T04:11:07;95655.69;;;2.06;76.12
46379;BME280;32084;42.254;22.744;2023-02-19T04:13:37;95645.91;;;1.94;75.68
46379;BME280;32084;42.254;22.744;2023-02-19T04:16:06;95641.78;;;1.75;76.76
46379;BME280;32084;42.254;22.744;2023-02-19T04:18:35;95644.53;;;1.60;76.68
46379;BME280;32084;42.254;22.744;2023-02-19T04:21:03;95642.91;;;1.71;76.92
46379;BME280;32084;42.254;22.744;2023-02-19T04:23:32;95647.97;;;1.74;77.27
46379;BME280;32084;42.254;22.744;2023-02-19T04:26:01;95657.22;;;1.82;76.86
46379;BME280;32084;42.254;22.744;2023-02-19T04:28:28;95646.75;;;1.80;77.15
46379;BME280;32084;42.254;22.744;2023-02-19T04:30:54;95654.03;;;1.77;76.85
46379;BME280;32084;42.254;22.744;2023-02-19T04:33:20;95649.78;;;1.74;76.60
46379;BME280;32084;42.254;22.744;2023-02-19T04:35:46;95652.63;;;1.71;77.18
46379;BME280;32084;42.254;22.744;2023-02-19T04:38:12;95661.06;;;1.76;77.16
46379;BME280;32084;42.254;22.744;2023-02-19T04:40:39;95661.28;;;1.59;77.50
46379;BME280;32084;42.254;22.744;2023-02-19T04:43:05;95664.84;;;1.43;77.75
46379;BME280;32084;42.254;22.744;2023-02-19T04:45:31;95654.59;;;1.39;77.77
46379;BME280;32084;42.254;22.744;2023-02-19T04:47:57;95661.16;;;1.46;78.24
46379;BME280;32084;42.254;22.744;2023-02-19T04:50:23;95658.72;;;1.57;77.70
46379;BME280;32084;42.254;22.744;2023-02-19T04:52:50;95658.38;;;1.63;77.64
46379;BME280;32084;42.254;22.744;2023-02-19T04:55:16;95654.59;;;1.67;77.28
46379;BME280;32084;42.254;22.744;2023-02-19T04:57:42;95668.72;;;1.66;77.05
46379;BME280;32084;42.254;22.744;2023-02-19T05:00:08;95661.75;;;1.65;76.97
46379;BME280;32084;42.254;22.744;2023-02-19T05:02:34;95664.75;;;1.59;76.71
46379;BME280;32084;42.254;22.744;2023-02-19T05:05:00;95664.28;;;1.52;77.66
46379;BME280;32084;42.254;22.744;2023-02-19T05:07:26;95664.09;;;1.41;77.77
46379;BME280;32084;42.254;22.744;2023-02-19T05:09:52;95665.56;;;1.31;77.15
46379;BME280;32084;42.254;22.744;2023-02-19T05:12:19;95655.19;;;1.13;77.79
46379;BME280;32084;42.254;22.744;2023-02-19T05:14:45;95657.38;;;1.21;77.69
46379;BME280;32084;42.254;22.744;2023-02-19T05:17:11;95668.03;;;1.34;77.95
46379;BME280;32084;42.254;22.744;2023-02-19T05:19:37;95672.16;;;1.24;78.06
46379;BME280;32084;42.254;22.744;2023-02-19T05:22:03;95672.16;;;1.24;78.16
46379;BME280;32084;42.254;22.744;2023-02-19T05:24:29;95662.09;;;1.30;77.63
46379;BME280;32084;42.254;22.744;2023-02-19T05:26:56;95667.69;;;1.10;78.58
46379;BME280;32084;42.254;22.744;2023-02-19T05:29:22;95670.53;;;1.21;78.64
46379;BME280;32084;42.254;22.744;2023-02-19T05:31:48;95671.78;;;1.30;77.99
46379;BME280;32084;42.254;22.744;2023-02-19T05:34:14;95678.13;;;1.56;77.20
46379;BME280;32084;42.254;22.744;2023-02-19T05:36:40;95682.91;;;1.49;77.43
46379;BME280;32084;42.254;22.744;2023-02-19T05:39:06;95688.00;;;1.52;76.88
46379;BME280;32084;42.254;22.744;2023-02-19T05:41:33;95675.97;;;1.48;76.90
46379;BME280;32084;42.254;22.744;2023-02-19T05:43:59;95683.56;;;1.53;76.98
46379;BME280;32084;42.254;22.744;2023-02-19T05:46:26;95691.09;;;1.59;76.76
46379;BME280;32084;42.254;22.744;2023-02-19T05:48:52;95687.53;;;1.60;76.47
46379;BME280;32084;42.254;22.744;2023-02-19T05:51:19;95683.50;;;1.54;77.02
46379;BME280;32084;42.254;22.744;2023-02-19T05:53:46;95695.84;;;1.83;76.55
46379;BME280;32084;42.254;22.744;2023-02-19T05:58:51;95705.59;;;1.95;75.54
46379;BME280;32084;42.254;22.744;2023-02-19T06:01:18;95700.81;;;2.02;75.10
46379;BME280;32084;42.254;22.744;2023-02-19T06:03:45;95709.34;;;2.20;74.74
46379;BME280;32084;42.254;22.744;2023-02-19T06:06:12;95704.06;;;2.34;74.29
46379;BME280;32084;42.254;22.744;2023-02-19T06:08:38;95715.34;;;2.50;73.49
46379;BME280;32084;42.254;22.744;2023-02-19T06:11:04;95714.22;;;2.54;72.80
46379;BME280;32084;42.254;22.744;2023-02-19T06:13:30;95717.66;;;2.69;73.61
46379;BME280;32084;42.254;22.744;2023-02-19T06:15:56;95718.00;;;3.18;71.93
46379;BME280;32084;42.254;22.744;2023-02-19T06:18:22;95719.16;;;3.66;70.03
46379;BME280;32084;42.254;22.744;2023-02-19T06:20:48;95726.63;;;4.11;68.33
46379;BME280;32084;42.254;22.744;2023-02-19T06:23:14;95721.19;;;4.75;66.01
46379;BME280;32084;42.254;22.744;2023-02-19T06:25:40;95720.25;;;5.24;64.59
46379;BME280;32084;42.254;22.744;2023-02-19T06:28:08;95715.88;;;6.05;62.03
46379;BME280;32084;42.254;22.744;2023-02-19T06:30:35;95728.03;;;7.52;57.65
46379;BME280;32084;42.254;22.744;2023-02-19T06:33:01;95718.78;;;8.71;53.47
46379;BME280;32084;42.254;22.744;2023-02-19T06:35:27;95723.66;;;9.35;51.94
46379;BME280;32084;42.254;22.744;2023-02-19T06:37:53;95729.69;;;9.76;50.85
46379;BME280;32084;42.254;22.744;2023-02-19T06:40:19;95741.03;;;10.92;48.12
46379;BME280;32084;42.254;22.744;2023-02-19T06:42:45;95748.06;;;12.29;44.18
46379;BME280;32084;42.254;22.744;2023-02-19T06:45:11;95753.38;;;12.73;43.02
46379;BME280;32084;42.254;22.744;2023-02-19T06:47:37;95764.78;;;12.49;43.36
46379;BME280;32084;42.254;22.744;2023-02-19T06:50:03;95769.50;;;12.03;43.72
46379;BME280;32084;42.254;22.744;2023-02-19T06:52:30;95750.91;;;12.27;43.62
46379;BME280;32084;42.254;22.744;2023-02-19T06:54:56;95769.97;;;12.24;41.97
46379;BME280;32084;42.254;22.744;2023-02-19T06:57:22;95759.94;;;12.26;42.87
46379;BME280;32084;42.254;22.744;2023-02-19T06:59:48;95781.94;;;13.84;39.46
46379;BME280;32084;42.254;22.744;2023-02-19T07:02:14;95794.41;;;15.23;36.84
46379;BME280;32084;42.254;22.744;2023-02-19T07:04:40;95797.38;;;15.45;36.94
46379;BME280;32084;42.254;22.744;2023-02-19T07:07:06;95796.00;;;15.49;36.27
46379;BME280;32084;42.254;22.744;2023-02-19T07:09:35;95794.19;;;15.72;36.15
46379;BME280;32084;42.254;22.744;2023-02-19T07:12:01;95784.19;;;15.89;35.50
46379;BME280;32084;42.254;22.744;2023-02-19T07:14:27;95785.78;;;15.75;35.49
46379;BME280;32084;42.254;22.744;2023-02-19T07:16:54;95781.97;;;14.66;37.83
46379;BME280;32084;42.254;22.744;2023-02-19T07:19:20;95764.22;;;13.40;40.07
46379;BME280;32084;42.254;22.744;2023-02-19T07:21:46;95751.50;;;12.21;43.00
46379;BME280;32084;42.254;22.744;2023-02-19T07:24:12;95743.59;;;11.76;44.65
46379;BME280;32084;42.254;22.744;2023-02-19T07:26:38;95740.81;;;10.86;46.46
46379;BME280;32084;42.254;22.744;2023-02-19T07:29:04;95738.78;;;10.70;46.82
46379;BME280;32084;42.254;22.744;2023-02-19T07:31:31;95735.22;;;10.42;48.45
46379;BME280;32084;42.254;22.744;2023-02-19T07:33:57;95726.38;;;10.69;48.07
46379;BME280;32084;42.254;22.744;2023-02-19T07:36:23;95729.34;;;10.66;48.50
46379;BME280;32084;42.254;22.744;2023-02-19T07:38:55;95723.81;;;11.05;48.03
46379;BME280;32084;42.254;22.744;2023-02-19T07:41:24;95728.72;;;11.45;46.54
46379;BME280;32084;42.254;22.744;2023-02-19T07:43:50;95730.50;;;11.55;46.09
46379;BME280;32084;42.254;22.744;2023-02-19T07:46:17;95726.84;;;11.56;45.67
46379;BME280;32084;42.254;22.744;2023-02-19T07:48:43;95716.56;;;11.51;46.31
46379;BME280;32084;42.254;22.744;2023-02-19T07:51:14;95723.84;;;11.59;46.45
46379;BME280;32084;42.254;22.744;2023-02-19T07:53:44;95720.16;;;11.42;46.91
46379;BME280;32084;42.254;22.744;2023-02-19T07:56:11;95724.97;;;11.74;46.13
46379;BME280;32084;42.254;22.744;2023-02-19T07:58:37;95722.84;;;11.78;46.08
46379;BME280;32084;42.254;22.744;2023-02-19T08:01:12;95724.00;;;11.75;46.29
46379;BME280;32084;42.254;22.744;2023-02-19T08:03:38;95721.06;;;12.04;46.00
46379;BME280;32084;42.254;22.744;2023-02-19T08:06:05;95713.84;;;12.23;45.10
46379;BME280;32084;42.254;22.744;2023-02-19T08:08:31;95713.25;;;12.37;45.07
46379;BME280;32084;42.254;22.744;2023-02-19T08:11:00;95708.78;;;12.46;45.45
46379;BME280;32084;42.254;22.744;2023-02-19T08:13:46;95707.28;;;12.86;45.20
46379;BME280;32084;42.254;22.744;2023-02-19T08:16:13;95709.69;;;12.97;44.32
46379;BME280;32084;42.254;22.744;2023-02-19T08:18:42;95714.66;;;13.26;43.10
46379;BME280;32084;42.254;22.744;2023-02-19T08:21:08;95717.94;;;13.12;43.95
46379;BME280;32084;42.254;22.744;2023-02-19T08:23:35;95719.06;;;12.93;43.78
46379;BME280;32084;42.254;22.744;2023-02-19T08:26:01;95713.53;;;13.45;43.65
46379;BME280;32084;42.254;22.744;2023-02-19T08:28:27;95711.25;;;13.83;42.78
46379;BME280;32084;42.254;22.744;2023-02-19T08:30:57;95708.72;;;13.74;43.00
46379;BME280;32084;42.254;22.744;2023-02-19T08:33:23;95712.41;;;13.97;42.24
46379;BME280;32084;42.254;22.744;2023-02-19T08:35:49;95701.97;;;13.70;43.21
46379;BME280;32084;42.254;22.744;2023-02-19T08:38:15;95706.69;;;13.67;43.11
46379;BME280;32084;42.254;22.744;2023-02-19T08:40:41;95695.28;;;13.74;43.55
46379;BME280;32084;42.254;22.744;2023-02-19T08:43:11;95692.56;;;13.90;42.72
46379;BME280;32084;42.254;22.744;2023-02-19T08:45:38;95694.56;;;14.29;42.28
46379;BME280;32084;42.254;22.744;2023-02-19T08:48:04;95694.22;;;14.40;41.93
46379;BME280;32084;42.254;22.744;2023-02-19T08:50:30;95690.31;;;14.59;41.45
46379;BME280;32084;42.254;22.744;2023-02-19T08:53:00;95690.75;;;14.79;41.31
46379;BME280;32084;42.254;22.744;2023-02-19T08:55:27;95690.34;;;14.99;40.84
46379;BME280;32084;42.254;22.744;2023-02-19T08:57:53;95679.22;;;15.33;40.09
46379;BME280;32084;42.254;22.744;2023-02-19T09:00:19;95681.50;;;15.45;40.41
46379;BME280;32084;42.254;22.744;2023-02-19T09:02:46;95680.47;;;15.46;39.64
46379;BME280;32084;42.254;22.744;2023-02-19T09:05:12;95677.69;;;15.39;39.25
46379;BME280;32084;42.254;22.744;2023-02-19T09:07:39;95667.31;;;15.51;39.90
46379;BME280;32084;42.254;22.744;2023-02-19T09:10:05;95667.97;;;15.53;40.00
46379;BME280;32084;42.254;22.744;2023-02-19T09:12:31;95658.97;;;15.14;40.63
46379;BME280;32084;42.254;22.744;2023-02-19T09:14:58;95658.91;;;15.46;39.98
46379;BME280;32084;42.254;22.744;2023-02-19T09:17:25;95659.22;;;15.51;40.33
46379;BME280;32084;42.254;22.744;2023-02-19T09:19:51;95657.84;;;15.55;39.90
46379;BME280;32084;42.254;22.744;2023-02-19T09:22:17;95658.81;;;15.85;39.37
46379;BME280;32084;42.254;22.744;2023-02-19T09:24:43;95656.19;;;16.00;40.22
46379;BME280;32084;42.254;22.744;2023-02-19T09:27:14;95654.00;;;16.33;38.68
46379;BME280;32084;42.254;22.744;2023-02-19T09:29:40;95649.06;;;16.22;38.72
46379;BME280;32084;42.254;22.744;2023-02-19T09:32:06;95639.63;;;16.18;38.80
46379;BME280;32084;42.254;22.744;2023-02-19T09:34:32;95635.09;;;16.48;38.93
46379;BME280;32084;42.254;22.744;2023-02-19T09:36:58;95630.09;;;16.60;38.29
46379;BME280;32084;42.254;22.744;2023-02-19T09:39:24;95632.03;;;16.81;38.03
46379;BME280;32084;42.254;22.744;2023-02-19T09:41:51;95620.53;;;17.09;37.62
46379;BME280;32084;42.254;22.744;2023-02-19T09:44:22;95620.16;;;17.12;37.01
46379;BME280;32084;42.254;22.744;2023-02-19T09:46:50;95617.94;;;17.37;37.11
46379;BME280;32084;42.254;22.744;2023-02-19T09:49:26;95614.47;;;17.43;36.78
46379;BME280;32084;42.254;22.744;2023-02-19T09:51:57;95611.19;;;17.48;36.63
46379;BME280;32084;42.254;22.744;2023-02-19T09:54:28;95611.97;;;17.63;35.91
46379;BME280;32084;42.254;22.744;2023-02-19T09:56:55;95608.44;;;17.63;36.57
46379;BME280;32084;42.254;22.744;2023-02-19T09:59:22;95599.41;;;17.77;36.00
46379;BME280;32084;42.254;22.744;2023-02-19T10:01:51;95594.84;;;17.56;36.10
46379;BME280;32084;42.254;22.744;2023-02-19T10:04:40;95585.00;;;17.48;36.36
46379;BME280;32084;42.254;22.744;2023-02-19T10:07:36;95582.63;;;17.39;36.75
46379;BME280;32084;42.254;22.744;2023-02-19T10:10:27;95569.00;;;17.75;36.17
46379;BME280;32084;42.254;22.744;2023-02-19T10:16:05;95568.63;;;17.78;35.91
46379;BME280;32084;42.254;22.744;2023-02-19T10:18:54;95565.53;;;18.09;35.72
46379;BME280;32084;42.254;22.744;2023-02-19T10:21:40;95557.41;;;18.03;35.10
46379;BME280;32084;42.254;22.744;2023-02-19T10:24:27;95565.78;;;18.49;34.52
46379;BME280;32084;42.254;22.744;2023-02-19T10:27:14;95556.75;;;18.77;34.14
46379;BME280;32084;42.254;22.744;2023-02-19T10:30:00;95543.91;;;18.92;33.99
46379;BME280;32084;42.254;22.744;2023-02-19T10:32:59;95542.28;;;18.98;33.70
46379;BME280;32084;42.254;22.744;2023-02-19T10:38:37;95515.63;;;19.15;33.62
46379;BME280;32084;42.254;22.744;2023-02-19T10:41:24;95508.94;;;18.98;34.36
46379;BME280;32084;42.254;22.744;2023-02-19T10:44:13;95519.13;;;18.96;33.66
46379;BME280;32084;42.254;22.744;2023-02-19T10:46:59;95500.00;;;19.17;33.55
46379;BME280;32084;42.254;22.744;2023-02-19T10:49:45;95485.16;;;19.00;33.08
46379;BME280;32084;42.254;22.744;2023-02-19T10:52:32;95489.78;;;19.33;33.52
46379;BME280;32084;42.254;22.744;2023-02-19T10:55:33;95490.22;;;19.16;31.89
46379;BME280;32084;42.254;22.744;2023-02-19T10:58:23;95481.75;;;18.78;32.44
46379;BME280;32084;42.254;22.744;2023-02-19T11:01:21;95474.47;;;18.78;32.74
46379;BME280;32084;42.254;22.744;2023-02-19T11:04:14;95457.22;;;18.86;32.05
46379;BME280;32084;42.254;22.744;2023-02-19T11:07:06;95457.41;;;18.91;30.79
46379;BME280;32084;42.254;22.744;2023-02-19T11:09:52;95448.91;;;19.21;31.33
46379;BME280;32084;42.254;22.744;2023-02-19T11:12:37;95438.09;;;19.27;32.11
46379;BME280;32084;42.254;22.744;2023-02-19T11:21:00;95414.94;;;19.31;31.98
46379;BME280;32084;42.254;22.744;2023-02-19T11:23:47;95411.38;;;19.18;31.28
46379;BME280;32084;42.254;22.744;2023-02-19T11:26:32;95408.88;;;19.09;31.01
46379;BME280;32084;42.254;22.744;2023-02-19T11:29:22;95401.38;;;19.05;31.75
46379;BME280;32084;42.254;22.744;2023-02-19T11:32:22;95399.09;;;19.15;31.52
46379;BME280;32084;42.254;22.744;2023-02-19T11:35:12;95383.03;;;19.34;31.03
46379;BME280;32084;42.254;22.744;2023-02-19T11:37:59;95385.94;;;19.19;30.76
46379;BME280;32084;42.254;22.744;2023-02-19T11:44:01;95372.38;;;19.39;31.10
46379;BME280;32084;42.254;22.744;2023-02-19T12:13:26;95340.75;;;19.98;30.29
46379;BME280;32084;42.254;22.744;2023-02-19T12:16:24;95328.81;;;20.05;31.34
46379;BME280;32084;42.254;22.744;2023-02-19T12:40:29;95271.34;;;19.63;30.56
46379;BME280;32084;42.254;22.744;2023-02-19T12:46:07;95261.47;;;19.24;31.55
46379;BME280;32084;42.254;22.744;2023-02-19T12:49:01;95263.13;;;19.31;31.00
46379;BME280;32084;42.254;22.744;2023-02-19T12:51:57;95256.28;;;19.22;30.74
46379;BME280;32084;42.254;22.744;2023-02-19T12:54:45;95252.91;;;19.27;31.26
46379;BME280;32084;42.254;22.744;2023-02-19T12:57:32;95250.38;;;19.39;31.18
46379;BME280;32084;42.254;22.744;2023-02-19T13:00:27;95258.69;;;19.44;30.99
46379;BME280;32084;42.254;22.744;2023-02-19T13:09:17;95242.06;;;19.34;31.04
46379;BME280;32084;42.254;22.744;2023-02-19T13:18:15;95224.59;;;19.09;30.91
46379;BME280;32084;42.254;22.744;2023-02-19T13:21:02;95208.19;;;18.98;31.14
46379;BME280;32084;42.254;22.744;2023-02-19T13:23:50;95211.25;;;19.08;31.97
46379;BME280;32084;42.254;22.744;2023-02-19T13:26:57;95209.16;;;19.10;31.93
46379;BME280;32084;42.254;22.744;2023-02-19T13:30:09;95191.03;;;19.17;31.81
46379;BME280;32084;42.254;22.744;2023-02-19T13:32:57;95193.72;;;19.17;31.47
46379;BME280;32084;42.254;22.744;2023-02-19T13:35:56;95185.41;;;19.12;31.65
46379;BME280;32084;42.254;22.744;2023-02-19T13:38:50;95179.63;;;18.95;31.83
46379;BME280;32084;42.254;22.744;2023-02-19T13:41:39;95194.63;;;18.98;31.43
46379;BME280;32084;42.254;22.744;2023-02-19T13:44:29;95182.56;;;18.94;32.00
46379;BME280;32084;42.254;22.744;2023-02-19T13:50:23;95169.28;;;18.52;32.44
46379;BME280;32084;42.254;22.744;2023-02-19T14:05:09;95162.38;;;18.69;32.01
46379;BME280;32084;42.254;22.744;2023-02-19T14:07:55;95164.22;;;18.76;31.95
46379;BME280;32084;42.254;22.744;2023-02-19T14:11:14;95169.00;;;18.73;32.08
46379;BME280;32084;42.254;22.744;2023-02-19T14:13:54;95152.78;;;18.60;32.72
46379;BME280;32084;42.254;22.744;2023-02-19T14:25:51;95146.38;;;18.14;33.22
46379;BME280;32084;42.254;22.744;2023-02-19T14:28:42;95139.28;;;18.13;33.38
46379;BME280;32084;42.254;22.744;2023-02-19T14:31:37;95141.38;;;18.05;33.82
46379;BME280;32084;42.254;22.744;2023-02-19T14:34:23;95143.47;;;17.96;33.69
46379;BME280;32084;42.254;22.744;2023-02-19T14:37:14;95138.00;;;17.83;34.04
46379;BME280;32084;42.254;22.744;2023-02-19T14:40:02;95141.13;;;17.73;33.99
46379;BME280;32084;42.254;22.744;2023-02-19T14:42:48;95128.84;;;17.77;33.87
46379;BME280;32084;42.254;22.744;2023-02-19T14:45:46;95129.09;;;17.89;34.30
46379;BME280;32084;42.254;22.744;2023-02-19T14:48:35;95131.78;;;17.89;33.65
46379;BME280;32084;42.254;22.744;2023-02-19T14:51:24;95130.75;;;17.83;34.16
46379;BME280;32084;42.254;22.744;2023-02-19T14:54:15;95133.44;;;17.83;34.00
46379;BME280;32084;42.254;22.744;2023-02-19T14:57:01;95120.53;;;17.79;33.79
46379;BME280;32084;42.254;22.744;2023-02-19T14:59:57;95124.50;;;17.76;33.68
46379;BME280;32084;42.254;22.744;2023-02-19T15:02:43;95120.50;;;17.65;34.40
46379;BME280;32084;42.254;22.744;2023-02-19T15:05:30;95115.50;;;17.55;34.96
46379;BME280;32084;42.254;22.744;2023-02-19T15:08:17;95118.41;;;17.47;35.68
46379;BME280;32084;42.254;22.744;2023-02-19T15:11:10;95111.06;;;17.21;36.47
46379;BME280;32084;42.254;22.744;2023-02-19T15:13:57;95109.72;;;16.90;37.36
46379;BME280;32084;42.254;22.744;2023-02-19T15:16:43;95110.41;;;16.64;38.15
46379;BME280;32084;42.254;22.744;2023-02-19T15:19:30;95111.34;;;16.50;38.49
46379;BME280;32084;42.254;22.744;2023-02-19T15:22:21;95104.97;;;16.29;39.13
46379;BME280;32084;42.254;22.744;2023-02-19T15:25:10;95102.53;;;16.06;39.49
46379;BME280;32084;42.254;22.744;2023-02-19T15:28:17;95099.31;;;15.89;39.95
46379;BME280;32084;42.254;22.744;2023-02-19T15:31:03;95105.25;;;15.63;40.55
46379;BME280;32084;42.254;22.744;2023-02-19T15:33:51;95104.94;;;15.51;40.55
46379;BME280;32084;42.254;22.744;2023-02-19T15:36:37;95108.09;;;15.33;40.42
46379;BME280;32084;42.254;22.744;2023-02-19T15:39:23;95113.72;;;15.17;40.98
46379;BME280;32084;42.254;22.744;2023-02-19T15:41:59;95104.09;;;15.08;41.09
46379;BME280;32084;42.254;22.744;2023-02-19T15:46:55;95108.31;;;14.95;41.59
46379;BME280;32084;42.254;22.744;2023-02-19T15:49:27;95107.50;;;14.80;41.64
46379;BME280;32084;42.254;22.744;2023-02-19T15:52:01;95114.34;;;14.53;41.82
46379;BME280;32084;42.254;22.744;2023-02-19T15:54:36;95108.78;;;14.24;42.35